createdAt,value
2022-12-04T00:00:24.744Z,6.10
2022-12-04T00:03:11.246Z,6.21
2022-12-04T00:05:37.931Z,6.24
2022-12-04T00:08:04.831Z,6.30
2022-12-04T00:10:31.921Z,6.24
2022-12-04T00:12:58.424Z,6.24
2022-12-04T00:15:26.289Z,6.24
2022-12-04T00:17:54.916Z,6.11
2022-12-04T00:20:22.671Z,6.06
2022-12-04T00:22:49.552Z,6.07
2022-12-04T00:25:16.466Z,6.10
2022-12-04T00:27:42.968Z,6.07
2022-12-04T00:30:09.933Z,6.09
2022-12-04T00:32:36.546Z,6.15
2022-12-04T00:35:03.615Z,6.35
2022-12-04T00:37:30.455Z,6.45
2022-12-04T00:39:57.430Z,6.51
2022-12-04T00:42:24.154Z,6.48
2022-12-04T00:44:50.775Z,6.51
2022-12-04T00:47:17.273Z,6.51
2022-12-04T00:49:43.957Z,6.56
2022-12-04T00:52:10.447Z,6.62
2022-12-04T00:54:37.030Z,6.64
2022-12-04T00:57:03.706Z,6.63
2022-12-04T00:59:30.325Z,6.56
2022-12-04T01:01:57.007Z,6.46
2022-12-04T01:04:23.549Z,6.37
2022-12-04T01:06:50.408Z,6.25
2022-12-04T01:09:16.934Z,6.23
2022-12-04T01:11:43.493Z,5.86
2022-12-04T01:14:10.130Z,5.09
2022-12-04T01:16:37.870Z,4.89
2022-12-04T01:19:06.178Z,4.99
2022-12-04T01:21:33.294Z,5.26
2022-12-04T01:24:00.044Z,5.34
2022-12-04T01:26:27.328Z,4.46
2022-12-04T01:28:54.033Z,4.10
2022-12-04T01:31:21.531Z,3.84
2022-12-04T01:33:48.431Z,3.95
2022-12-04T01:36:17.004Z,4.45
2022-12-04T01:38:43.853Z,4.70
2022-12-04T01:41:11.712Z,4.81
2022-12-04T01:43:39.270Z,5.13
2022-12-04T01:46:06.353Z,5.49
2022-12-04T01:48:34.604Z,5.84
2022-12-04T01:51:06.767Z,6.07
2022-12-04T01:53:35.443Z,5.65
2022-12-04T01:56:02.541Z,5.31
2022-12-04T01:58:31.314Z,5.34
2022-12-04T02:01:02.603Z,5.64
2022-12-04T02:03:33.403Z,5.84
2022-12-04T02:06:00.094Z,5.91
2022-12-04T02:08:27.507Z,6.10
2022-12-04T02:11:00.992Z,6.28
2022-12-04T02:13:35.724Z,6.39
2022-12-04T02:16:02.252Z,6.45
2022-12-04T02:18:45.910Z,6.57
2022-12-04T02:21:18.370Z,6.61
2022-12-04T02:23:54.163Z,6.68
2022-12-04T02:26:38.213Z,6.64
2022-12-04T02:29:10.880Z,6.53
2022-12-04T02:31:47.913Z,6.42
2022-12-04T02:34:20.285Z,6.29
2022-12-04T02:36:49.639Z,6.28
2022-12-04T02:39:22.513Z,6.14
2022-12-04T02:42:15.512Z,6.02
2022-12-04T02:45:03.067Z,6.00
2022-12-04T02:47:30.049Z,6.13
2022-12-04T02:50:01.177Z,6.23
2022-12-04T02:52:51.074Z,6.24
2022-12-04T02:55:41.160Z,6.23
2022-12-04T02:58:15.996Z,6.35
2022-12-04T03:00:44.933Z,6.48
2022-12-04T03:03:14.893Z,6.63
2022-12-04T03:05:47.324Z,6.72
2022-12-04T03:08:16.621Z,6.68
2022-12-04T03:10:46.523Z,6.72
2022-12-04T03:13:18.423Z,6.68
2022-12-04T03:15:51.945Z,6.63
2022-12-04T03:18:23.977Z,6.64
2022-12-04T03:20:54.587Z,6.72
2022-12-04T03:23:24.305Z,6.66
2022-12-04T03:25:58.990Z,6.60
2022-12-04T03:28:31.028Z,6.63
2022-12-04T03:31:02.838Z,6.66
2022-12-04T03:33:33.211Z,6.62
2022-12-04T03:36:07.166Z,6.55
2022-12-04T03:38:54.231Z,6.55
2022-12-04T03:41:36.099Z,6.52
2022-12-04T03:44:15.043Z,6.50
2022-12-04T03:47:02.066Z,6.27
2022-12-04T03:49:40.477Z,6.11
2022-12-04T03:52:13.207Z,6.08
2022-12-04T03:54:43.172Z,6.14
2022-12-04T03:57:15.097Z,6.18
2022-12-04T03:59:45.001Z,6.12
2022-12-04T04:02:14.977Z,6.19
2022-12-04T04:04:43.378Z,6.14
2022-12-04T04:07:12.771Z,5.71
2022-12-04T04:09:42.040Z,4.02
2022-12-04T04:12:14.558Z,3.56
2022-12-04T04:15:09.693Z,3.48
2022-12-04T04:18:07.688Z,3.44
2022-12-04T04:20:55.509Z,3.69
2022-12-04T04:23:41.458Z,4.10
2022-12-04T04:26:08.457Z,4.51
2022-12-04T04:28:36.938Z,4.87
2022-12-04T04:31:09.628Z,5.25
2022-12-04T04:33:42.195Z,5.43
2022-12-04T04:36:14.462Z,5.54
2022-12-04T04:38:55.210Z,5.71
2022-12-04T04:41:26.741Z,5.95
2022-12-04T04:43:53.518Z,6.02
2022-12-04T04:46:22.893Z,6.08
2022-12-04T04:48:55.032Z,5.21
2022-12-04T04:51:21.763Z,5.05
2022-12-04T04:53:50.412Z,4.87
2022-12-04T04:56:17.659Z,4.87
2022-12-04T04:58:44.215Z,5.04
2022-12-04T05:01:12.636Z,5.34
2022-12-04T05:03:39.692Z,5.55
2022-12-04T05:06:06.505Z,5.66
2022-12-04T05:08:33.349Z,5.72
2022-12-04T05:11:00.139Z,5.79
2022-12-04T05:13:27.903Z,5.98
2022-12-04T05:16:09.684Z,6.08
2022-12-04T05:18:36.858Z,6.15
2022-12-04T05:21:07.371Z,6.14
2022-12-04T05:23:34.366Z,6.12
2022-12-04T05:26:01.673Z,6.17
2022-12-04T05:28:28.382Z,6.25
2022-12-04T05:30:56.061Z,6.34
2022-12-04T05:33:23.149Z,6.49
2022-12-04T05:36:00.200Z,6.50
2022-12-04T05:38:27.002Z,6.55
2022-12-04T05:40:53.753Z,6.57
2022-12-04T05:43:20.304Z,6.56
2022-12-04T05:45:47.014Z,6.49
2022-12-04T05:48:13.721Z,6.30
2022-12-04T05:50:40.633Z,6.24
2022-12-04T05:53:07.467Z,6.24
2022-12-04T05:55:34.149Z,6.15
2022-12-04T05:58:00.806Z,6.14
2022-12-04T06:00:27.795Z,6.09
2022-12-04T06:02:54.580Z,6.03
2022-12-04T06:05:22.129Z,5.97
2022-12-04T06:07:48.841Z,5.91
2022-12-04T06:10:15.426Z,5.97
2022-12-04T06:12:41.902Z,5.92
2022-12-04T06:15:08.700Z,5.84
2022-12-04T06:17:35.364Z,5.83
2022-12-04T06:20:05.240Z,5.84
2022-12-04T06:22:34.796Z,5.75
2022-12-04T06:25:01.330Z,5.78
2022-12-04T06:27:28.792Z,5.83
2022-12-04T06:29:56.003Z,5.96
2022-12-04T06:32:22.788Z,5.97
2022-12-04T06:34:50.905Z,6.01
2022-12-04T06:37:17.690Z,6.02
2022-12-04T06:39:44.337Z,6.07
2022-12-04T06:42:10.826Z,6.00
2022-12-04T06:44:37.318Z,5.82
2022-12-04T06:47:04.682Z,5.78
2022-12-04T06:49:31.367Z,5.64
2022-12-04T06:51:57.916Z,5.59
2022-12-04T06:54:25.554Z,5.67
2022-12-04T06:56:52.316Z,5.54
2022-12-04T06:59:18.998Z,5.50
2022-12-04T07:01:45.592Z,5.52
2022-12-04T07:04:12.109Z,5.50
2022-12-04T07:06:38.997Z,5.60
2022-12-04T07:09:07.302Z,5.76
2022-12-04T07:11:34.081Z,5.82
2022-12-04T07:14:01.008Z,5.94
2022-12-04T07:16:28.346Z,6.07
2022-12-04T07:18:58.400Z,6.32
2022-12-04T07:21:26.583Z,6.53
2022-12-04T07:23:54.650Z,6.65
2022-12-04T07:26:22.386Z,6.75
2022-12-04T07:28:49.430Z,6.66
2022-12-04T07:31:18.044Z,6.49
2022-12-04T07:33:45.389Z,6.41
2022-12-04T07:36:14.271Z,6.44
2022-12-04T07:38:41.012Z,6.40
2022-12-04T07:41:08.571Z,6.62
2022-12-04T07:43:35.410Z,6.86
2022-12-04T07:46:10.313Z,7.01
2022-12-04T07:48:37.077Z,7.13
2022-12-04T07:51:11.264Z,7.35
2022-12-04T07:53:38.125Z,7.54
2022-12-04T07:56:05.288Z,7.73
2022-12-04T07:58:32.202Z,7.88
2022-12-04T08:01:09.210Z,8.08
2022-12-04T08:03:36.420Z,8.15
2022-12-04T08:06:03.712Z,8.10
2022-12-04T08:08:30.655Z,8.12
2022-12-04T08:10:57.435Z,8.00
2022-12-04T08:13:24.074Z,7.84
2022-12-04T08:15:50.933Z,7.79
2022-12-04T08:18:17.757Z,7.72
2022-12-04T08:20:44.270Z,7.74
2022-12-04T08:23:10.882Z,7.87
2022-12-04T08:25:38.668Z,7.92
2022-12-04T08:28:05.345Z,7.95
2022-12-04T08:30:32.931Z,7.88
2022-12-04T08:32:59.585Z,7.77
2022-12-04T08:35:26.193Z,7.62
2022-12-04T08:37:53.019Z,7.59
2022-12-04T08:40:19.697Z,7.65
2022-12-04T08:42:46.176Z,7.68
2022-12-04T08:45:12.766Z,7.62
2022-12-04T08:47:39.277Z,7.56
2022-12-04T08:50:06.533Z,7.47
2022-12-04T08:52:33.291Z,7.25
2022-12-04T08:54:59.787Z,7.22
2022-12-04T08:57:26.358Z,7.23
2022-12-04T08:59:52.942Z,7.24
2022-12-04T09:02:20.271Z,7.30
2022-12-04T09:04:46.956Z,7.27
2022-12-04T09:07:13.611Z,7.31
2022-12-04T09:09:44.943Z,7.33
2022-12-04T09:12:14.481Z,7.40
2022-12-04T09:14:41.627Z,7.72
2022-12-04T09:17:08.253Z,7.83
2022-12-04T09:19:36.485Z,7.85
2022-12-04T09:22:03.118Z,7.96
2022-12-04T09:24:30.054Z,8.09
2022-12-04T09:26:56.576Z,8.17
2022-12-04T09:29:23.213Z,8.13
2022-12-04T09:31:49.738Z,8.08
2022-12-04T09:34:16.177Z,8.13
2022-12-04T09:36:42.990Z,7.91
2022-12-04T09:39:09.664Z,7.71
2022-12-04T09:41:36.177Z,7.77
2022-12-04T09:44:14.981Z,7.80
2022-12-04T09:46:58.377Z,7.74
2022-12-04T09:49:24.911Z,7.79
2022-12-04T09:51:53.871Z,7.91
2022-12-04T09:54:22.938Z,7.86
2022-12-04T09:56:54.684Z,7.82
2022-12-04T09:59:24.191Z,7.87
2022-12-04T10:01:50.636Z,7.97
2022-12-04T10:04:18.301Z,7.92
2022-12-04T10:07:07.016Z,7.74
2022-12-04T10:09:36.287Z,7.77
2022-12-04T10:12:22.870Z,7.97
2022-12-04T10:14:49.391Z,8.12
2022-12-04T10:17:32.751Z,8.23
2022-12-04T10:19:59.779Z,8.30
2022-12-04T10:22:41.552Z,8.26
2022-12-04T10:25:11.785Z,8.05
2022-12-04T10:27:48.637Z,7.77
2022-12-04T10:30:18.005Z,7.37
2022-12-04T10:32:45.680Z,7.30
2022-12-04T10:35:20.785Z,7.55
2022-12-04T10:37:51.264Z,7.80
2022-12-04T10:40:20.983Z,8.00
2022-12-04T10:42:57.754Z,8.18
2022-12-04T10:45:24.314Z,8.38
2022-12-04T10:47:51.828Z,8.49
2022-12-04T10:50:20.146Z,8.68
2022-12-04T10:52:47.353Z,9.08
2022-12-04T10:55:14.749Z,9.43
2022-12-04T10:57:45.453Z,9.67
2022-12-04T11:00:26.421Z,9.72
2022-12-04T11:02:54.083Z,9.65
2022-12-04T11:05:25.780Z,9.52
2022-12-04T11:07:54.085Z,9.46
2022-12-04T11:10:23.499Z,9.40
2022-12-04T11:12:57.601Z,9.43
2022-12-04T11:15:24.253Z,9.41
2022-12-04T11:17:52.236Z,9.12
2022-12-04T11:20:18.842Z,8.75
2022-12-04T11:22:49.095Z,8.45
2022-12-04T11:25:18.953Z,8.12
2022-12-04T11:27:47.337Z,7.53
2022-12-04T11:30:18.226Z,7.56
2022-12-04T11:32:45.753Z,7.83
2022-12-04T11:35:16.764Z,8.12
2022-12-04T11:37:52.366Z,8.22
2022-12-04T11:40:19.540Z,8.41
2022-12-04T11:42:58.128Z,8.55
2022-12-04T11:45:24.971Z,8.50
2022-12-04T11:48:02.395Z,8.34
2022-12-04T11:50:47.982Z,7.86
2022-12-04T11:53:18.259Z,7.38
2022-12-04T11:55:57.084Z,7.18
2022-12-04T11:58:44.445Z,6.78
2022-12-04T12:01:20.271Z,6.54
2022-12-04T12:04:02.212Z,6.68
2022-12-04T12:06:28.683Z,7.01
2022-12-04T12:08:55.392Z,7.35
2022-12-04T12:11:24.641Z,7.40
2022-12-04T12:13:54.294Z,7.30
2022-12-04T12:16:24.060Z,7.58
2022-12-04T12:19:03.955Z,7.89
2022-12-04T12:21:39.026Z,7.98
2022-12-04T12:24:24.399Z,7.95
2022-12-04T12:27:00.736Z,7.79
2022-12-04T12:29:36.633Z,7.93
2022-12-04T12:32:03.314Z,7.62
2022-12-04T12:34:40.539Z,7.31
2022-12-04T12:37:12.095Z,7.08
2022-12-04T12:39:39.958Z,7.17
2022-12-04T12:42:12.897Z,7.57
2022-12-04T12:44:42.479Z,8.04
2022-12-04T12:47:13.914Z,8.43
2022-12-04T12:49:49.907Z,8.83
2022-12-04T12:52:34.982Z,9.27
2022-12-04T12:55:24.587Z,9.51
2022-12-04T12:57:57.536Z,9.77
2022-12-04T13:00:25.143Z,9.92
2022-12-04T13:03:01.648Z,10.07
2022-12-04T13:05:34.393Z,10.18
2022-12-04T13:08:20.400Z,10.29
2022-12-04T13:10:57.854Z,10.34
2022-12-04T13:13:26.872Z,10.41
2022-12-04T13:15:56.250Z,10.47
2022-12-04T13:18:43.282Z,10.56
2022-12-04T13:21:20.056Z,10.66
2022-12-04T13:24:06.940Z,10.70
2022-12-04T13:26:40.901Z,10.73
2022-12-04T13:29:10.278Z,10.82
2022-12-04T13:31:59.277Z,10.76
2022-12-04T13:34:26.328Z,10.65
2022-12-04T13:36:52.809Z,10.65
2022-12-04T13:39:19.313Z,10.55
2022-12-04T13:41:46.305Z,10.43
2022-12-04T13:44:20.308Z,10.30
2022-12-04T13:46:53.186Z,10.22
2022-12-04T13:49:19.725Z,10.15
2022-12-04T13:51:47.593Z,10.14
2022-12-04T13:54:14.100Z,10.11
2022-12-04T13:56:42.639Z,10.04
2022-12-04T13:59:31.519Z,9.89
2022-12-04T14:02:03.483Z,9.71
2022-12-04T14:04:35.977Z,9.53
2022-12-04T14:07:03.457Z,9.36
2022-12-04T14:09:47.947Z,9.17
2022-12-04T14:12:16.090Z,8.92
2022-12-04T14:15:02.800Z,8.79
2022-12-04T14:17:31.306Z,8.72
2022-12-04T14:20:04.287Z,8.71
2022-12-04T14:22:34.010Z,8.63
2022-12-04T14:25:18.546Z,8.58
2022-12-04T14:27:51.099Z,8.54
2022-12-04T14:30:22.446Z,8.37
2022-12-04T14:32:50.670Z,8.23
2022-12-04T14:35:19.921Z,8.19
2022-12-04T14:38:06.059Z,8.10
2022-12-04T14:40:35.723Z,7.81
2022-12-04T14:43:02.359Z,7.60
2022-12-04T14:45:47.964Z,7.47
2022-12-04T14:48:25.533Z,7.38
2022-12-04T14:50:58.328Z,7.29
2022-12-04T14:53:24.763Z,7.32
2022-12-04T14:56:04.649Z,7.31
2022-12-04T14:58:37.217Z,7.21
2022-12-04T15:01:05.190Z,7.00
2022-12-04T15:03:36.238Z,6.76
2022-12-04T15:06:08.242Z,6.67
2022-12-04T15:08:35.092Z,6.77
2022-12-04T15:11:24.146Z,6.87
2022-12-04T15:13:50.926Z,7.04
2022-12-04T15:16:19.254Z,7.13
2022-12-04T15:18:52.750Z,7.20
2022-12-04T15:21:19.788Z,7.28
2022-12-04T15:23:46.443Z,7.32
2022-12-04T15:26:18.165Z,7.26
2022-12-04T15:28:47.802Z,7.14
2022-12-04T15:31:42.750Z,7.13
2022-12-04T15:34:14.037Z,7.21
2022-12-04T15:36:40.505Z,7.25
2022-12-04T15:39:07.190Z,7.34
2022-12-04T15:41:35.158Z,7.39
2022-12-04T15:44:02.342Z,7.42
2022-12-04T15:46:33.882Z,7.47
2022-12-04T15:49:04.249Z,7.61
2022-12-04T15:51:30.773Z,7.72
2022-12-04T15:53:57.488Z,7.74
2022-12-04T15:56:24.884Z,7.75
2022-12-04T15:58:56.929Z,7.77
2022-12-04T16:01:23.509Z,7.74
2022-12-04T16:03:54.904Z,7.76
2022-12-04T16:06:23.641Z,7.76
2022-12-04T16:08:53.485Z,7.75
2022-12-04T16:11:19.977Z,7.78
2022-12-04T16:13:48.037Z,7.68
2022-12-04T16:16:16.363Z,7.46
2022-12-04T16:18:43.165Z,7.13
2022-12-04T16:21:16.546Z,6.78
2022-12-04T16:23:43.759Z,6.48
2022-12-04T16:26:14.386Z,6.44
2022-12-04T16:28:41.289Z,6.39
2022-12-04T16:31:11.982Z,6.38
2022-12-04T16:33:39.206Z,6.34
2022-12-04T16:36:06.215Z,6.23
2022-12-04T16:38:33.298Z,6.09
2022-12-04T16:40:59.775Z,6.00
2022-12-04T16:43:26.367Z,6.03
2022-12-04T16:45:54.087Z,6.15
2022-12-04T16:48:20.976Z,6.31
2022-12-04T16:50:47.612Z,6.51
2022-12-04T16:53:16.221Z,6.68
2022-12-04T16:55:44.061Z,6.86
2022-12-04T16:58:10.664Z,7.08
2022-12-04T17:00:38.557Z,7.25
2022-12-04T17:03:05.179Z,7.38
2022-12-04T17:05:35.067Z,7.51
2022-12-04T17:08:01.954Z,7.59
2022-12-04T17:10:29.614Z,7.59
2022-12-04T17:12:56.135Z,7.58
2022-12-04T17:15:22.651Z,7.65
2022-12-04T17:17:49.419Z,7.78
2022-12-04T17:20:17.452Z,7.90
2022-12-04T17:22:44.572Z,7.85
2022-12-04T17:25:12.054Z,7.70
2022-12-04T17:27:38.851Z,7.65
2022-12-04T17:30:06.194Z,7.65
2022-12-04T17:32:34.361Z,7.62
2022-12-04T17:35:01.959Z,7.60
2022-12-04T17:37:28.657Z,7.50
2022-12-04T17:39:55.551Z,7.35
2022-12-04T17:42:22.240Z,7.23
2022-12-04T17:44:48.912Z,7.22
2022-12-04T17:47:16.193Z,7.31
2022-12-04T17:49:43.174Z,7.40
2022-12-04T17:52:10.426Z,7.41
2022-12-04T17:54:36.953Z,7.27
2022-12-04T17:57:03.425Z,7.29
2022-12-04T17:59:30.182Z,7.33
2022-12-04T18:01:56.866Z,7.38
2022-12-04T18:04:24.427Z,7.41
2022-12-04T18:06:52.129Z,7.42
2022-12-04T18:09:18.979Z,7.45
2022-12-04T18:11:46.542Z,7.45
2022-12-04T18:14:14.968Z,7.43
2022-12-04T18:16:43.891Z,7.42
2022-12-04T18:19:12.043Z,7.32
2022-12-04T18:21:38.640Z,7.28
2022-12-04T18:24:06.125Z,7.30
2022-12-04T18:26:40.167Z,7.28
2022-12-04T18:29:07.487Z,7.34
2022-12-04T18:31:34.369Z,7.38
2022-12-04T18:34:00.967Z,7.41
2022-12-04T18:36:28.548Z,7.43
2022-12-04T18:38:56.840Z,7.47
2022-12-04T18:41:23.898Z,7.46
2022-12-04T18:43:51.238Z,7.42
2022-12-04T18:46:18.262Z,7.36
2022-12-04T18:48:45.991Z,7.36
2022-12-04T18:51:15.823Z,7.38
2022-12-04T18:53:42.558Z,7.45
2022-12-04T18:56:09.710Z,7.50
2022-12-04T18:58:36.244Z,7.55
2022-12-04T19:01:07.344Z,7.52
2022-12-04T19:03:34.541Z,7.47
2022-12-04T19:06:02.042Z,7.43
2022-12-04T19:08:33.607Z,7.41
2022-12-04T19:11:09.059Z,7.37
2022-12-04T19:13:35.872Z,7.36
2022-12-04T19:16:03.292Z,7.34
2022-12-04T19:18:30.469Z,7.21
2022-12-04T19:20:57.250Z,7.20
2022-12-04T19:23:24.013Z,7.21
2022-12-04T19:25:55.284Z,7.19
2022-12-04T19:28:22.409Z,7.21
2022-12-04T19:30:49.042Z,7.22
2022-12-04T19:33:15.679Z,7.23
2022-12-04T19:35:42.869Z,7.23
2022-12-04T19:38:09.572Z,7.23
2022-12-04T19:40:36.207Z,7.11
2022-12-04T19:43:03.298Z,6.99
2022-12-04T19:45:30.065Z,7.00
2022-12-04T19:47:56.889Z,7.00
2022-12-04T19:50:23.487Z,6.98
2022-12-04T19:52:50.353Z,6.91
2022-12-04T19:55:17.011Z,6.92
2022-12-04T19:57:43.579Z,6.92
2022-12-04T20:00:10.401Z,6.92
2022-12-04T20:02:39.626Z,6.96
2022-12-04T20:05:06.667Z,6.98
2022-12-04T20:07:33.251Z,6.99
2022-12-04T20:10:00.307Z,6.99
2022-12-04T20:12:27.525Z,6.96
2022-12-04T20:14:54.337Z,6.95
2022-12-04T20:17:20.852Z,6.97
2022-12-04T20:19:47.606Z,6.93
2022-12-04T20:22:14.131Z,6.92
2022-12-04T20:24:40.783Z,6.91
2022-12-04T20:27:07.549Z,6.88
2022-12-04T20:29:34.127Z,6.89
2022-12-04T20:32:00.796Z,6.94
2022-12-04T20:34:28.518Z,7.00
2022-12-04T20:36:55.093Z,7.04
2022-12-04T20:39:21.609Z,6.99
2022-12-04T20:41:48.387Z,7.04
2022-12-04T20:44:18.505Z,7.05
2022-12-04T20:46:45.543Z,7.09
2022-12-04T20:49:21.624Z,7.11
2022-12-04T20:51:49.154Z,7.18
2022-12-04T20:54:17.972Z,7.21
2022-12-04T20:56:45.333Z,7.26
2022-12-04T20:59:13.334Z,7.22
2022-12-04T21:01:40.651Z,7.05
2022-12-04T21:04:08.066Z,6.92
2022-12-04T21:06:36.168Z,6.96
2022-12-04T21:09:05.270Z,6.98
2022-12-04T21:11:33.608Z,6.98
2022-12-04T21:14:19.602Z,7.03
2022-12-04T21:16:47.001Z,7.10
2022-12-04T21:19:14.959Z,7.17
2022-12-04T21:21:41.810Z,7.29
2022-12-04T21:24:09.514Z,7.35
2022-12-04T21:26:36.264Z,7.50
2022-12-04T21:29:03.970Z,7.59
2022-12-04T21:31:30.980Z,7.58
2022-12-04T21:33:58.575Z,7.52
2022-12-04T21:36:25.928Z,7.49
2022-12-04T21:38:53.036Z,7.62
2022-12-04T21:41:38.568Z,7.82
2022-12-04T21:44:08.167Z,8.07
2022-12-04T21:46:35.158Z,8.04
2022-12-04T21:49:02.769Z,8.01
2022-12-04T21:51:55.571Z,7.83
2022-12-04T21:54:16.333Z,7.56
2022-12-04T21:56:43.416Z,7.42
2022-12-04T21:59:10.497Z,7.36
2022-12-04T22:01:37.275Z,7.56
2022-12-04T22:04:04.250Z,7.75
2022-12-04T22:06:35.534Z,7.79
2022-12-04T22:09:03.097Z,7.75
2022-12-04T22:11:29.822Z,7.88
2022-12-04T22:13:56.558Z,7.73
2022-12-04T22:16:30.056Z,7.67
2022-12-04T22:18:58.199Z,7.40
2022-12-04T22:21:25.791Z,7.14
2022-12-04T22:23:59.464Z,7.01
2022-12-04T22:26:26.815Z,6.91
2022-12-04T22:28:53.515Z,6.73
2022-12-04T22:31:21.351Z,6.80
2022-12-04T22:33:49.345Z,6.87
2022-12-04T22:36:19.950Z,7.00
2022-12-04T22:39:08.144Z,7.15
2022-12-04T22:41:33.178Z,7.21
2022-12-04T22:43:59.774Z,7.16
2022-12-04T22:46:26.416Z,7.07
2022-12-04T22:48:53.065Z,7.02
2022-12-04T22:51:20.837Z,6.99
2022-12-04T22:53:48.699Z,6.83
2022-12-04T22:56:25.989Z,6.63
2022-12-04T22:58:53.263Z,6.54
2022-12-04T23:01:21.202Z,6.54
2022-12-04T23:03:48.191Z,6.52
2022-12-04T23:06:15.300Z,6.35
2022-12-04T23:08:42.670Z,6.22
2022-12-04T23:11:11.237Z,6.33
2022-12-04T23:13:38.366Z,6.36
2022-12-04T23:16:09.309Z,6.61
2022-12-04T23:18:36.596Z,6.96
2022-12-04T23:21:08.117Z,7.04
2022-12-04T23:23:40.987Z,6.98
2022-12-04T23:26:09.223Z,7.15
2022-12-04T23:28:35.812Z,7.39
2022-12-04T23:31:03.261Z,7.55
2022-12-04T23:33:30.927Z,7.84
2022-12-04T23:35:58.761Z,8.10
2022-12-04T23:38:25.900Z,8.07
2022-12-04T23:41:01.432Z,7.88
2022-12-04T23:43:27.903Z,7.76
2022-12-04T23:45:54.595Z,7.67
2022-12-04T23:48:21.191Z,7.28
2022-12-04T23:50:47.801Z,7.32
2022-12-04T23:53:14.282Z,7.45
2022-12-04T23:55:40.797Z,7.18
2022-12-04T23:58:07.431Z,7.17
